createdAt,value
2019-06-10T00:01:21.339Z,7.37
2019-06-10T00:04:23.851Z,7.60
2019-06-10T00:07:25.751Z,7.27
2019-06-10T00:10:27.604Z,6.83
2019-06-10T00:13:31.395Z,7.67
2019-06-10T00:16:33.367Z,6.90
2019-06-10T00:19:35.249Z,8.10
2019-06-10T00:22:37.212Z,14.03
2019-06-10T00:25:41.303Z,6.43
2019-06-10T00:28:43.021Z,5.60
2019-06-10T00:31:44.940Z,7.60
2019-06-10T00:34:46.812Z,6.57
2019-06-10T00:37:51.065Z,6.47
2019-06-10T00:40:52.713Z,7.03
2019-06-10T00:43:55.348Z,9.53
2019-06-10T00:46:57.364Z,10.20
2019-06-10T00:50:02.855Z,8.73
2019-06-10T00:53:04.504Z,8.70
2019-06-10T00:56:09.621Z,7.20
2019-06-10T00:59:14.781Z,9.50
2019-06-10T01:02:15.262Z,8.53
2019-06-10T01:05:17.182Z,9.80
2019-06-10T01:08:21.255Z,8.93
2019-06-10T01:11:26.993Z,10.87
2019-06-10T01:14:26.769Z,7.77
2019-06-10T01:17:30.981Z,11.90
2019-06-10T01:20:32.576Z,11.70
2019-06-10T01:23:34.501Z,9.93
2019-06-10T01:26:36.379Z,8.37
2019-06-10T01:29:38.296Z,8.50
2019-06-10T01:32:41.638Z,9.13
2019-06-10T01:35:43.813Z,8.70
2019-06-10T01:38:45.652Z,10.87
2019-06-10T01:41:47.536Z,10.03
2019-06-10T01:44:50.693Z,12.93
2019-06-10T01:47:52.882Z,10.00
2019-06-10T01:50:55.205Z,8.97
2019-06-10T01:53:57.117Z,9.63
2019-06-10T01:57:01.343Z,8.97
2019-06-10T02:00:09.921Z,10.37
2019-06-10T02:03:13.267Z,11.83
2019-06-10T02:06:16.581Z,12.50
2019-06-10T02:09:18.801Z,10.40
2019-06-10T02:12:24.043Z,8.93
2019-06-10T02:15:25.143Z,8.43
2019-06-10T02:18:27.164Z,11.93
2019-06-10T02:21:31.175Z,13.83
2019-06-10T02:24:33.332Z,10.50
2019-06-10T02:27:35.245Z,9.60
2019-06-10T02:30:46.214Z,10.57
2019-06-10T02:33:41.964Z,10.10
2019-06-10T02:36:44.807Z,15.00
2019-06-10T02:39:47.082Z,15.43
2019-06-10T02:42:53.786Z,12.33
2019-06-10T02:45:54.664Z,10.03
2019-06-10T02:49:16.429Z,10.33
2019-06-10T02:52:03.344Z,13.03
2019-06-10T02:55:06.274Z,10.93
2019-06-10T02:58:08.620Z,13.67
2019-06-10T03:01:10.503Z,11.17
2019-06-10T03:04:13.796Z,12.47
2019-06-10T03:07:17.792Z,15.60
2019-06-10T03:10:22.671Z,11.23
2019-06-10T03:13:25.583Z,16.57
2019-06-10T03:16:29.545Z,12.73
2019-06-10T03:19:44.116Z,16.00
2019-06-10T03:22:35.291Z,11.77
2019-06-10T03:25:37.245Z,17.63
2019-06-10T03:28:39.124Z,13.77
2019-06-10T03:31:47.796Z,15.10
2019-06-10T03:34:47.714Z,14.10
2019-06-10T03:37:50.054Z,14.13
2019-06-10T03:40:52.452Z,15.23
2019-06-10T03:43:54.780Z,13.00
2019-06-10T03:46:56.729Z,16.13
2019-06-10T03:49:58.870Z,18.83
2019-06-10T03:53:04.302Z,18.43
2019-06-10T03:56:05.194Z,18.67
2019-06-10T03:59:07.131Z,16.57
2019-06-10T04:02:09.013Z,17.07
2019-06-10T04:05:13.351Z,15.73
2019-06-10T04:08:15.049Z,18.23
2019-06-10T04:11:17.438Z,19.13
2019-06-10T04:14:22.055Z,17.47
2019-06-10T04:17:25.280Z,16.77
2019-06-10T04:20:28.338Z,25.03
2019-06-10T04:23:33.393Z,20.10
2019-06-10T04:26:35.091Z,18.13
2019-06-10T04:29:37.088Z,19.43
2019-06-10T04:32:38.967Z,19.23
2019-06-10T04:35:42.712Z,21.00
2019-06-10T04:38:44.788Z,18.73
2019-06-10T04:41:46.674Z,18.67
2019-06-10T04:44:48.565Z,19.17
2019-06-10T04:47:52.454Z,19.87
2019-06-10T04:50:54.819Z,19.30
2019-06-10T04:53:57.932Z,19.83
2019-06-10T04:57:02.140Z,19.70
2019-06-10T05:00:11.177Z,21.07
2019-06-10T05:03:12.098Z,19.20
2019-06-10T05:06:14.418Z,20.00
2019-06-10T05:09:19.030Z,20.30
2019-06-10T05:12:23.275Z,21.63
2019-06-10T05:15:28.451Z,18.47
2019-06-10T05:18:30.221Z,20.13
2019-06-10T05:21:33.785Z,20.43
2019-06-10T05:24:35.890Z,19.80
2019-06-10T05:27:37.769Z,21.60
2019-06-10T05:30:39.698Z,20.33
2019-06-10T05:33:42.573Z,19.60
2019-06-10T05:36:44.813Z,19.70
2019-06-10T05:39:46.745Z,20.13
2019-06-10T05:42:48.734Z,21.33
2019-06-10T05:45:52.882Z,19.47
2019-06-10T05:48:54.534Z,17.83
2019-06-10T05:51:56.649Z,19.63
2019-06-10T05:54:58.530Z,18.20
2019-06-10T05:58:02.595Z,18.37
2019-06-10T06:01:04.278Z,18.32
2019-06-10T06:04:06.175Z,19.50
2019-06-10T06:07:08.085Z,17.45
2019-06-10T06:10:12.818Z,17.45
2019-06-10T06:13:14.572Z,16.95
2019-06-10T06:16:17.852Z,18.12
2019-06-10T06:19:19.712Z,17.02
2019-06-10T06:22:22.193Z,18.75
2019-06-10T06:25:24.343Z,16.73
2019-06-10T06:28:26.331Z,17.02
2019-06-10T06:31:28.269Z,18.45
2019-06-10T06:34:32.651Z,17.05
2019-06-10T06:37:36.409Z,18.05
2019-06-10T06:40:39.213Z,16.57
2019-06-10T06:43:45.038Z,15.70
2019-06-10T06:46:45.012Z,17.87
2019-06-10T06:49:47.394Z,15.63
2019-06-10T06:53:18.815Z,16.87
2019-06-10T06:55:55.857Z,16.02
2019-06-10T06:58:57.179Z,17.35
2019-06-10T07:01:59.166Z,16.20
2019-06-10T07:05:03.139Z,15.78
2019-06-10T07:08:06.519Z,14.78
2019-06-10T07:11:13.163Z,15.20
2019-06-10T07:14:18.019Z,20.68
2019-06-10T07:17:22.607Z,15.30
2019-06-10T07:20:23.896Z,17.37
2019-06-10T07:23:25.886Z,15.28
2019-06-10T07:26:27.805Z,19.02
2019-06-10T07:29:29.639Z,19.20
2019-06-10T07:32:34.154Z,14.70
2019-06-10T07:35:36.085Z,15.25
2019-06-10T07:38:41.762Z,15.38
2019-06-10T07:41:47.415Z,17.32
2019-06-10T07:44:47.012Z,16.30
2019-06-10T07:47:49.071Z,16.27
2019-06-10T07:50:53.203Z,15.78
2019-06-10T07:53:54.992Z,15.38
2019-06-10T07:56:57.020Z,15.00
2019-06-10T07:59:59.042Z,14.28
2019-06-10T08:03:02.474Z,13.32
2019-06-10T08:06:04.710Z,13.38
2019-06-10T08:09:06.621Z,14.07
2019-06-10T08:12:08.616Z,15.88
2019-06-10T08:15:12.479Z,14.25
2019-06-10T08:18:14.861Z,14.58
2019-06-10T08:21:16.837Z,13.25
2019-06-10T08:24:18.820Z,13.45
2019-06-10T08:27:22.721Z,14.33
2019-06-10T08:30:27.658Z,13.65
2019-06-10T08:33:28.498Z,13.32
2019-06-10T08:36:33.128Z,13.28
2019-06-10T08:39:34.299Z,11.90
2019-06-10T08:42:36.573Z,12.75
2019-06-10T08:45:38.972Z,12.55
2019-06-10T08:48:43.846Z,13.05
2019-06-10T08:51:48.143Z,12.33
2019-06-10T08:54:53.673Z,13.32
2019-06-10T08:57:54.060Z,12.85
2019-06-10T09:00:56.064Z,13.08
2019-06-10T09:03:57.982Z,12.25
2019-06-10T09:06:59.889Z,11.28
2019-06-10T09:10:03.100Z,12.35
2019-06-10T09:13:05.458Z,13.80
2019-06-10T09:16:15.507Z,11.38
2019-06-10T09:19:13.136Z,11.45
2019-06-10T09:22:15.229Z,11.18
2019-06-10T09:25:17.588Z,10.65
2019-06-10T09:28:19.539Z,11.80
2019-06-10T09:31:23.821Z,11.97
2019-06-10T09:34:25.339Z,12.40
2019-06-10T09:37:27.240Z,12.23
2019-06-10T09:40:57.576Z,10.90
2019-06-10T09:43:57.001Z,12.82
2019-06-10T09:47:00.316Z,11.85
2019-06-10T09:50:08.180Z,15.15
2019-06-10T09:53:12.711Z,12.80
2019-06-10T09:56:15.250Z,12.88
2019-06-10T09:59:17.169Z,12.28
2019-06-10T10:02:19.046Z,11.55
2019-06-10T10:05:23.365Z,14.65
2019-06-10T10:08:24.891Z,12.13
2019-06-10T10:11:28.865Z,12.73
2019-06-10T10:14:33.370Z,11.78
2019-06-10T10:17:35.041Z,11.97
2019-06-10T10:20:37.090Z,13.40
2019-06-10T10:23:51.214Z,14.23
2019-06-10T10:26:46.705Z,11.10
2019-06-10T10:29:48.895Z,12.43
2019-06-10T10:32:52.369Z,12.28
2019-06-10T10:35:54.775Z,12.43
2019-06-10T10:38:56.701Z,11.20
2019-06-10T10:41:58.651Z,12.37
2019-06-10T10:45:02.764Z,12.68
2019-06-10T10:48:04.627Z,13.43
2019-06-10T10:51:06.558Z,12.85
2019-06-10T10:54:22.493Z,13.83
2019-06-10T10:57:13.184Z,14.58
2019-06-10T11:00:18.930Z,17.45
2019-06-10T11:03:22.889Z,12.80
2019-06-10T11:06:24.727Z,13.13
2019-06-10T11:09:27.936Z,11.67
2019-06-10T11:12:33.075Z,12.55
2019-06-10T11:15:34.641Z,10.98
2019-06-10T11:18:36.595Z,12.20
2019-06-10T11:21:38.672Z,12.28
2019-06-10T11:24:42.292Z,11.15
2019-06-10T11:27:46.312Z,12.27
2019-06-10T11:30:49.425Z,12.20
2019-06-10T11:33:56.959Z,11.08
2019-06-10T11:36:58.213Z,12.47
2019-06-10T11:40:02.667Z,11.38
2019-06-10T11:43:04.332Z,11.68
2019-06-10T11:46:07.726Z,12.88
2019-06-10T11:49:12.433Z,10.68
2019-06-10T11:52:13.994Z,12.55
2019-06-10T11:55:19.131Z,11.20
2019-06-10T11:58:22.291Z,11.70
2019-06-10T12:01:23.767Z,10.68
2019-06-10T12:04:25.700Z,11.10
2019-06-10T12:07:27.680Z,11.90
2019-06-10T12:10:29.543Z,10.80
2019-06-10T12:13:34.299Z,12.40
2019-06-10T12:19:39.260Z,11.60
2019-06-10T12:22:42.357Z,11.37
2019-06-10T12:25:47.821Z,10.95
2019-06-10T12:28:50.697Z,12.73
2019-06-10T12:31:57.866Z,10.88
2019-06-10T12:34:58.372Z,12.75
2019-06-10T12:38:05.863Z,11.90
2019-06-10T12:41:09.684Z,10.72
2019-06-10T12:44:09.048Z,17.17
2019-06-10T12:47:11.011Z,12.98
2019-06-10T12:50:15.140Z,11.83
2019-06-10T12:53:17.056Z,9.97
2019-06-10T12:56:19.100Z,17.40
2019-06-10T12:59:21.249Z,11.33
2019-06-10T13:02:30.498Z,10.50
2019-06-10T13:05:27.166Z,11.85
2019-06-10T13:08:33.193Z,12.30
2019-06-10T13:11:35.417Z,11.75
2019-06-10T13:14:37.371Z,10.27
2019-06-10T13:17:39.294Z,11.28
2019-06-10T13:20:43.264Z,9.70
2019-06-10T13:23:45.256Z,10.53
2019-06-10T13:26:47.185Z,9.10
2019-06-10T13:29:53.241Z,9.88
2019-06-10T13:32:56.364Z,10.20
2019-06-10T13:35:58.842Z,9.75
2019-06-10T13:39:04.003Z,9.35
2019-06-10T13:42:09.963Z,10.43
2019-06-10T13:45:11.770Z,11.57
2019-06-10T13:48:14.941Z,9.45
2019-06-10T13:51:17.318Z,9.15
2019-06-10T13:54:19.242Z,10.25
2019-06-10T13:57:23.032Z,11.08
2019-06-10T14:00:40.468Z,10.50
2019-06-10T14:03:32.616Z,9.33
2019-06-10T14:06:46.206Z,8.57
2019-06-10T14:09:38.334Z,9.55
2019-06-10T14:12:40.300Z,10.87
2019-06-10T14:15:42.873Z,11.68
2019-06-10T14:18:44.832Z,8.88
2019-06-10T14:21:46.750Z,11.30
2019-06-10T14:24:48.744Z,10.85
2019-06-10T14:27:53.075Z,10.70
2019-06-10T14:30:54.841Z,11.20
2019-06-10T14:33:56.742Z,10.63
2019-06-10T14:36:59.224Z,14.00
2019-06-10T14:40:03.604Z,36.03
2019-06-10T14:43:15.009Z,12.87
2019-06-10T14:46:17.725Z,13.57
2019-06-10T14:55:53.246Z,13.30
